Time;durP1;ratioP1;P1;durP2;ratioP2;P2;SDS_P1;SDS_P2;PMS_P1;PMS_P2;Temp;Humidity;BMP_temperature;BMP_pressure;BME280_temperature;BME280_humidity;BME280_pressure;Samples;Min_cycle;Max_cycle;Signal;HPM_P1;HPM_P2
2021/01/16 00:01:22;;;;;;;1999.90;999.90;;;2.60;99.90;;;;;;6274050;22;20019;-96
2021/01/16 00:04:12;;;;;;;;;;;;;;;;;;;;;
2021/01/16 00:06:50;;;;;;;1999.90;999.90;;;2.60;99.90;;;;;;6274560;22;20043;-96
2021/01/16 00:09:23;;;;;;;1999.90;999.90;;;2.60;99.90;;;;;;6259231;23;20024;-96
2021/01/16 00:12:02;;;;;;;1999.90;999.90;;;2.70;99.90;;;;;;6251644;23;20020;-95
2021/01/16 00:14:41;;;;;;;1999.90;999.90;;;2.60;99.90;;;;;;6251192;23;20047;-95
2021/01/16 00:17:09;;;;;;;1999.90;999.90;;;2.70;99.90;;;;;;6250409;23;20020;-96
2021/01/16 00:19:42;;;;;;;1999.90;999.90;;;2.60;99.90;;;;;;6250157;23;20016;-95
2021/01/16 00:22:10;;;;;;;1999.90;999.90;;;2.60;99.90;;;;;;6249118;23;20013;-96
2021/01/16 00:24:45;;;;;;;1999.90;999.90;;;2.60;99.90;;;;;;6248319;23;20047;-95
2021/01/16 00:27:13;;;;;;;1999.90;999.90;;;2.60;99.90;;;;;;6248451;23;20022;-95
2021/01/16 00:29:45;;;;;;;1999.90;999.90;;;2.60;99.90;;;;;;6248455;23;20498;-95
2021/01/16 00:32:19;;;;;;;1999.90;999.90;;;2.60;99.90;;;;;;6248518;23;20023;-95
2021/01/16 00:34:51;;;;;;;1999.90;999.90;;;2.60;99.90;;;;;;6249320;23;20023;-95
2021/01/16 00:37:20;;;;;;;1999.90;999.90;;;2.60;99.90;;;;;;6256149;22;20027;-95
2021/01/16 00:39:47;;;;;;;1999.90;999.90;;;2.60;99.90;;;;;;6279419;22;20022;-96
2021/01/16 00:42:20;;;;;;;1999.90;999.90;;;2.60;99.90;;;;;;6278843;22;20019;-96
2021/01/16 00:44:47;;;;;;;1999.90;999.90;;;2.60;99.90;;;;;;6278998;22;20023;-95
2021/01/16 00:47:14;;;;;;;1999.90;999.90;;;2.60;99.90;;;;;;6279031;22;20465;-95
2021/01/16 00:49:45;;;;;;;1999.90;999.90;;;2.60;99.90;;;;;;6279541;22;20019;-96
2021/01/16 00:52:17;;;;;;;1999.90;999.90;;;2.60;99.90;;;;;;6279888;22;20018;-95
2021/01/16 00:54:44;;;;;;;1999.90;999.90;;;2.60;99.90;;;;;;6279330;22;20427;-95
2021/01/16 00:57:13;;;;;;;1999.90;999.90;;;2.60;99.90;;;;;;6279512;22;20074;-95
2021/01/16 01:00:00;;;;;;;1999.90;999.90;;;2.60;99.90;;;;;;6279129;22;20044;-96
2021/01/16 01:02:28;;;;;;;1999.90;999.90;;;2.60;99.90;;;;;;6279115;22;20011;-95
2021/01/16 01:05:04;;;;;;;1999.90;999.90;;;2.60;99.90;;;;;;6279364;22;20071;-95
2021/01/16 01:07:34;;;;;;;1999.90;999.90;;;2.60;99.90;;;;;;6279032;22;20022;-96
2021/01/16 01:10:01;;;;;;;1999.90;999.90;;;2.60;99.90;;;;;;6279276;22;20110;-96
2021/01/16 01:12:29;;;;;;;1999.90;999.90;;;2.60;99.90;;;;;;6278676;22;20012;-95
2021/01/16 01:14:59;;;;;;;1999.90;999.90;;;2.60;99.90;;;;;;6279723;22;20023;-95
2021/01/16 01:17:27;;;;;;;1999.90;999.90;;;2.60;99.90;;;;;;6278886;22;20016;-95
2021/01/16 01:20:00;;;;;;;1999.90;999.90;;;2.60;99.90;;;;;;6278727;22;20027;-96
2021/01/16 01:22:33;;;;;;;1999.90;999.90;;;2.60;99.90;;;;;;6278644;22;20011;-95
2021/01/16 01:25:02;;;;;;;1999.90;999.90;;;2.60;99.90;;;;;;6278940;22;20026;-95
2021/01/16 01:27:29;;;;;;;1999.90;999.90;;;2.60;99.90;;;;;;6278247;22;20022;-95
2021/01/16 01:30:03;;;;;;;1999.90;999.90;;;2.60;99.90;;;;;;6279327;22;20016;-96
2021/01/16 01:32:30;;;;;;;1999.90;999.90;;;2.60;99.90;;;;;;6278921;22;20018;-95
2021/01/16 01:35:01;;;;;;;1999.90;999.90;;;2.60;99.90;;;;;;6279962;22;20023;-94
2021/01/16 01:37:29;;;;;;;1999.90;999.90;;;2.60;99.90;;;;;;6278621;22;20028;-94
2021/01/16 01:39:56;;;;;;;1999.90;999.90;;;2.60;99.90;;;;;;6278010;22;20019;-94
2021/01/16 01:42:24;;;;;;;1999.90;999.90;;;2.60;99.90;;;;;;6278792;22;20011;-94
2021/01/16 01:44:52;;;;;;;1999.90;999.90;;;2.60;99.90;;;;;;6278139;22;20022;-94
2021/01/16 01:47:19;;;;;;;1999.90;999.90;;;2.60;99.90;;;;;;6279285;22;20016;-94
2021/01/16 01:49:47;;;;;;;1999.90;999.90;;;2.60;99.90;;;;;;6278260;22;20023;-94
2021/01/16 01:52:15;;;;;;;1999.90;999.90;;;2.60;99.90;;;;;;6278485;22;20020;-94
2021/01/16 01:54:47;;;;;;;1999.90;999.90;;;2.60;99.90;;;;;;6278152;22;20019;-94
2021/01/16 01:57:19;;;;;;;1999.90;999.90;;;2.60;99.90;;;;;;6278200;22;20020;-94
2021/01/16 01:59:50;;;;;;;1999.90;999.90;;;2.60;99.90;;;;;;6279459;22;20026;-94
2021/01/16 02:02:18;;;;;;;1999.90;999.90;;;2.60;99.90;;;;;;6278366;22;20016;-94
2021/01/16 02:04:49;;;;;;;1999.90;999.90;;;2.60;99.90;;;;;;6278080;22;20099;-95
2021/01/16 02:07:25;;;;;;;1999.90;999.90;;;2.70;99.90;;;;;;6279198;22;20020;-94
2021/01/16 02:09:53;;;;;;;1999.90;999.90;;;2.70;99.90;;;;;;6278459;22;20378;-95
2021/01/16 02:12:21;;;;;;;1999.90;999.90;;;2.70;99.90;;;;;;6280173;22;20038;-94
2021/01/16 02:15:03;;;;;;;1999.90;999.90;;;2.70;99.90;;;;;;6280520;22;20069;-94
2021/01/16 02:17:59;;;;;;;1999.90;999.90;;;2.70;99.90;;;;;;6279936;22;20065;-94
2021/01/16 02:20:44;;;;;;;1999.90;999.90;;;2.70;99.90;;;;;;6280187;22;20027;-94
2021/01/16 02:23:34;;;;;;;1999.90;999.90;;;2.70;99.90;;;;;;6280617;22;20034;-94
2021/01/16 02:26:41;;;;;;;1999.90;999.90;;;2.80;99.90;;;;;;6280695;22;20019;-94
2021/01/16 02:29:12;;;;;;;1999.90;999.90;;;2.70;99.90;;;;;;6280903;22;20051;-94
2021/01/16 02:31:45;;;;;;;1999.90;999.90;;;2.70;99.90;;;;;;6280561;22;20370;-94
2021/01/16 02:34:18;;;;;;;1999.90;999.90;;;2.80;99.90;;;;;;6280192;22;20026;-94
2021/01/16 02:37:13;;;;;;;1999.90;999.90;;;2.70;99.90;;;;;;6280281;22;20028;-94
2021/01/16 02:39:53;;;;;;;1999.90;999.90;;;2.80;99.90;;;;;;6280354;22;20024;-95
2021/01/16 02:42:37;;;;;;;1999.90;999.90;;;2.80;99.90;;;;;;6280390;22;20016;-95
2021/01/16 02:45:14;;;;;;;1999.90;999.90;;;2.80;99.90;;;;;;6281085;22;20027;-94
2021/01/16 02:48:05;;;;;;;1999.90;999.90;;;2.80;99.90;;;;;;6280914;22;20069;-94
2021/01/16 02:50:43;;;;;;;1999.90;999.90;;;2.80;99.90;;;;;;6280472;22;20019;-94
2021/01/16 02:53:27;;;;;;;1999.90;999.90;;;2.80;99.90;;;;;;6280654;22;20015;-95
2021/01/16 02:56:11;;;;;;;1999.90;999.90;;;2.80;99.90;;;;;;6280559;22;20023;-96
2021/01/16 02:58:40;;;;;;;1999.90;999.90;;;2.80;99.90;;;;;;6279995;22;20040;-94
2021/01/16 03:01:18;;;;;;;1999.90;999.90;;;2.80;99.90;;;;;;6281201;22;20090;-94
2021/01/16 03:04:09;;;;;;;1999.90;999.90;;;2.80;99.90;;;;;;6279817;22;20100;-93
2021/01/16 03:06:48;;;;;;;1999.90;999.90;;;2.80;99.90;;;;;;6279739;22;20050;-94
2021/01/16 03:09:27;;;;;;;1999.90;999.90;;;2.80;99.90;;;;;;6279964;22;20107;-94
2021/01/16 03:12:00;;;;;;;1999.90;999.90;;;2.70;99.90;;;;;;6279878;22;20335;-94
2021/01/16 03:14:33;;;;;;;1999.90;999.90;;;2.70;99.90;;;;;;6280346;22;20450;-94
2021/01/16 03:17:09;;;;;;;1999.90;999.90;;;2.70;99.90;;;;;;6279240;22;20019;-95
2021/01/16 03:19:42;;;;;;;1999.90;999.90;;;2.70;99.90;;;;;;6280036;22;20019;-94
2021/01/16 03:22:23;;;;;;;1999.90;999.90;;;2.60;99.90;;;;;;6280232;22;20015;-95
2021/01/16 03:24:55;;;;;;;1999.90;999.90;;;2.60;99.90;;;;;;6279650;22;20020;-95
2021/01/16 03:27:24;;;;;;;1999.90;999.90;;;2.60;99.90;;;;;;6279663;22;20427;-95
2021/01/16 03:29:52;;;;;;;1999.90;999.90;;;2.60;99.90;;;;;;6280220;22;20375;-95
2021/01/16 03:32:22;;;;;;;1999.90;999.90;;;2.60;99.90;;;;;;6279704;22;20019;-95
2021/01/16 03:35:02;;;;;;;1999.90;999.90;;;2.60;99.90;;;;;;6280297;22;20312;-95
2021/01/16 03:37:30;;;;;;;1999.90;999.90;;;2.60;99.90;;;;;;6279408;22;20069;-95
2021/01/16 03:39:57;;;;;;;1999.90;999.90;;;2.50;99.90;;;;;;6279662;22;20097;-94
2021/01/16 03:42:29;;;;;;;1999.90;999.90;;;2.50;99.90;;;;;;6280076;22;20031;-94
2021/01/16 03:44:58;;;;;;;1999.90;999.90;;;2.50;99.90;;;;;;6279472;22;20022;-95
2021/01/16 03:47:31;;;;;;;1999.90;999.90;;;2.50;99.90;;;;;;6279971;22;20020;-94
2021/01/16 03:49:58;;;;;;;1999.90;999.90;;;2.50;99.90;;;;;;6279843;22;20016;-95
2021/01/16 03:52:30;;;;;;;1999.90;999.90;;;2.50;99.90;;;;;;6279361;22;20024;-95
2021/01/16 03:55:00;;;;;;;1999.90;999.90;;;2.50;99.90;;;;;;6279719;22;20098;-95
2021/01/16 03:57:34;;;;;;;1999.90;999.90;;;2.60;99.90;;;;;;6279519;22;20099;-95
2021/01/16 04:00:15;;;;;;;1999.90;999.90;;;2.60;99.90;;;;;;6279784;22;20355;-95
2021/01/16 04:02:45;;;;;;;1999.90;999.90;;;2.60;99.90;;;;;;6278992;22;20023;-95
2021/01/16 04:05:20;;;;;;;1999.90;999.90;;;2.70;99.90;;;;;;6279130;22;20090;-95
2021/01/16 04:07:54;;;;;;;1999.90;999.90;;;2.70;99.90;;;;;;6279952;22;20023;-95
2021/01/16 04:10:34;;;;;;;1999.90;999.90;;;2.70;99.90;;;;;;6279501;22;20436;-95
2021/01/16 04:13:03;;;;;;;1999.90;999.90;;;2.70;99.90;;;;;;6280823;22;20022;-95
2021/01/16 04:15:44;;;;;;;1999.90;999.90;;;2.70;99.90;;;;;;6279015;22;20092;-94
2021/01/16 04:18:16;;;;;;;1999.90;999.90;;;2.80;99.90;;;;;;6280115;22;20019;-94
2021/01/16 04:20:45;;;;;;;1999.90;999.90;;;2.80;99.90;;;;;;6279657;22;20354;-95
2021/01/16 04:23:16;;;;;;;1999.90;999.90;;;2.80;99.90;;;;;;6279142;22;20016;-95
2021/01/16 04:25:44;;;;;;;1999.90;999.90;;;2.70;99.90;;;;;;6279506;22;20019;-95
2021/01/16 04:28:14;;;;;;;1999.90;999.90;;;2.80;99.90;;;;;;6279025;22;20077;-95
2021/01/16 04:30:48;;;;;;;1999.90;999.90;;;2.70;99.90;;;;;;6279166;22;20043;-95
2021/01/16 04:36:02;;;;;;;1999.90;999.90;;;2.70;99.90;;;;;;6275092;22;20016;-95
2021/01/16 04:38:31;;;;;;;1999.90;999.90;;;2.70;99.90;;;;;;6279249;22;20023;-94
2021/01/16 04:41:06;;;;;;;1999.90;999.90;;;2.70;99.90;;;;;;6279826;22;20086;-95
2021/01/16 04:43:33;;;;;;;1999.90;999.90;;;2.70;99.90;;;;;;6281456;22;20023;-95
2021/01/16 04:46:12;;;;;;;1999.90;999.90;;;2.80;99.90;;;;;;6282909;22;20019;-94
2021/01/16 04:48:44;;;;;;;1999.90;999.90;;;2.80;99.90;;;;;;6282425;22;20022;-95
2021/01/16 04:51:13;;;;;;;1999.90;999.90;;;2.80;99.90;;;;;;6283365;22;20089;-94
2021/01/16 04:53:47;;;;;;;1999.90;999.90;;;2.80;99.90;;;;;;6283538;22;20026;-95
2021/01/16 04:56:18;;;;;;;1999.90;999.90;;;2.80;99.90;;;;;;6284497;22;20019;-95
2021/01/16 04:58:45;;;;;;;1999.90;999.90;;;2.70;99.90;;;;;;6285655;22;20450;-94
2021/01/16 05:01:15;;;;;;;1999.90;999.90;;;2.70;99.90;;;;;;6284404;22;20029;-94
2021/01/16 05:03:52;;;;;;;1999.90;999.90;;;2.70;99.90;;;;;;6285387;22;20022;-94
2021/01/16 05:06:20;;;;;;;1999.90;999.90;;;2.60;99.90;;;;;;6282129;22;20015;-95
2021/01/16 05:09:08;;;;;;;;;;;;;;;;;;;;;
2021/01/16 05:11:51;;;;;;;1999.90;999.90;;;2.70;99.90;;;;;;6278989;22;20066;-94
2021/01/16 05:14:43;;;;;;;1999.90;999.90;;;2.60;99.90;;;;;;6278586;22;20021;-95
2021/01/16 05:17:13;;;;;;;1999.90;999.90;;;2.60;99.90;;;;;;6279323;22;20106;-95
2021/01/16 05:19:42;;;;;;;1999.90;999.90;;;2.70;99.90;;;;;;6278241;22;20066;-95
2021/01/16 05:22:10;;;;;;;1999.90;999.90;;;2.60;99.90;;;;;;6279358;22;20016;-95
2021/01/16 05:24:40;;;;;;;1999.90;999.90;;;2.70;99.90;;;;;;6279393;22;20019;-95
2021/01/16 05:27:08;;;;;;;1999.90;999.90;;;2.60;99.90;;;;;;6278521;22;20086;-95
2021/01/16 05:29:44;;;;;;;1999.90;999.90;;;2.60;99.90;;;;;;6287886;22;20106;-96
2021/01/16 05:32:24;;;;;;;1999.90;999.90;;;2.60;99.90;;;;;;6282721;22;20073;-96
2021/01/16 05:34:55;;;;;;;1999.90;999.90;;;2.60;99.90;;;;;;6282325;22;20306;-96
2021/01/16 05:40:15;;;;;;;1999.90;999.90;;;2.60;99.90;;;;;;6250546;23;20332;-96
2021/01/16 05:42:45;;;;;;;1999.90;999.90;;;2.70;99.90;;;;;;6249090;23;20042;-96
2021/01/16 05:45:21;;;;;;;1999.90;999.90;;;2.60;99.90;;;;;;6249451;23;20020;-96
2021/01/16 05:47:49;;;;;;;1999.90;999.90;;;2.60;99.90;;;;;;6249125;23;20118;-96
2021/01/16 05:50:27;;;;;;;1999.90;999.90;;;2.60;99.90;;;;;;6249693;23;20016;-96
2021/01/16 05:52:57;;;;;;;1999.90;999.90;;;2.60;99.90;;;;;;6249771;23;20087;-96
2021/01/16 05:55:36;;;;;;;1999.90;999.90;;;2.60;99.90;;;;;;6250963;23;20021;-96
2021/01/16 05:58:31;;;;;;;1999.90;999.90;;;2.60;99.90;;;;;;6252728;23;20028;-96
2021/01/16 06:01:19;;;;;;;1999.90;999.90;;;2.60;99.90;;;;;;6253260;23;20022;-96
2021/01/16 06:04:05;;;;;;;1999.90;999.90;;;2.60;99.90;;;;;;6251857;23;20018;-96
2021/01/16 06:06:52;;;;;;;1999.90;999.90;;;2.60;99.90;;;;;;6250916;23;20022;-96
2021/01/16 06:09:30;;;;;;;1999.90;999.90;;;2.60;99.90;;;;;;6252681;23;20090;-96
2021/01/16 06:12:11;;;;;;;1999.90;999.90;;;2.60;99.90;;;;;;6252428;23;20023;-96
2021/01/16 06:14:54;;;;;;;1999.90;999.90;;;2.60;99.90;;;;;;6253801;23;20024;-96
2021/01/16 06:17:32;;;;;;;1999.90;999.90;;;2.60;99.90;;;;;;6253828;23;20023;-96
2021/01/16 06:20:02;;;;;;;1999.90;999.90;;;2.60;99.90;;;;;;6252831;23;20020;-96
2021/01/16 06:22:33;;;;;;;1999.90;999.90;;;2.60;99.90;;;;;;6253657;23;20027;-96
2021/01/16 06:25:03;;;;;;;1999.90;999.90;;;2.60;99.90;;;;;;6251191;23;20081;-96
2021/01/16 06:27:35;;;;;;;1999.90;999.90;;;2.60;99.90;;;;;;6251125;23;20020;-96
2021/01/16 06:30:07;;;;;;;1999.90;999.90;;;2.60;99.90;;;;;;6250529;23;20020;-96
2021/01/16 06:32:55;;;;;;;1999.90;999.90;;;2.60;99.90;;;;;;6251069;23;20040;-96
2021/01/16 06:35:29;;;;;;;1999.90;999.90;;;2.50;99.90;;;;;;6249430;23;20070;-96
2021/01/16 06:38:03;;;;;;;1999.90;999.90;;;2.50;99.90;;;;;;6266231;22;20020;-96
2021/01/16 06:40:40;;;;;;;1999.90;999.90;;;2.50;99.90;;;;;;6281328;22;20411;-96
2021/01/16 06:43:23;;;;;;;1999.90;999.90;;;2.50;99.90;;;;;;6283522;22;20023;-96
2021/01/16 06:46:13;;;;;;;1999.90;999.90;;;2.60;99.90;;;;;;6283616;22;20023;-96
2021/01/16 06:48:45;;;;;;;1999.90;999.90;;;2.50;99.90;;;;;;6283963;22;20308;-96
2021/01/16 06:51:23;;;;;;;1999.90;999.90;;;2.60;99.90;;;;;;6284794;22;20416;-96
2021/01/16 06:53:51;;;;;;;1999.90;999.90;;;2.60;99.90;;;;;;6283597;22;20019;-96
2021/01/16 06:56:30;;;;;;;1999.90;999.90;;;2.60;99.90;;;;;;6281519;22;20070;-96
2021/01/16 06:59:27;;;;;;;1999.90;999.90;;;2.60;99.90;;;;;;6277208;22;20073;-96
2021/01/16 07:02:18;;;;;;;1999.90;999.90;;;2.60;99.90;;;;;;6283871;22;20450;-96
2021/01/16 07:04:56;;;;;;;1999.90;999.90;;;2.50;99.90;;;;;;6284012;22;20091;-96
2021/01/16 07:07:35;;;;;;;1999.90;999.90;;;2.60;99.90;;;;;;6284146;22;20020;-96
2021/01/16 07:10:22;;;;;;;1999.90;999.90;;;2.60;99.90;;;;;;6283854;22;20015;-96
2021/01/16 07:13:23;;;;;;;1999.90;999.90;;;2.60;99.90;;;;;;6281988;22;20361;-96
2021/01/16 07:15:58;;;;;;;1999.90;999.90;;;2.60;99.90;;;;;;6279807;22;20497;-95
2021/01/16 07:18:26;;;;;;;1999.90;999.90;;;2.60;99.90;;;;;;6279823;22;20028;-95
2021/01/16 07:20:58;;;;;;;1999.90;999.90;;;2.60;99.90;;;;;;6281224;22;20045;-96
2021/01/16 07:23:36;;;;;;;1999.90;999.90;;;2.60;99.90;;;;;;6280326;22;20077;-94
2021/01/16 07:26:10;;;;;;;1999.90;999.90;;;2.50;99.90;;;;;;6280139;22;20469;-95
2021/01/16 07:28:44;;;;;;;1999.90;999.90;;;2.50;99.90;;;;;;6280693;22;20073;-95
2021/01/16 07:31:33;;;;;;;1999.90;999.90;;;2.60;99.90;;;;;;6279117;22;20451;-96
2021/01/16 07:34:15;;;;;;;1999.90;999.90;;;2.50;99.90;;;;;;6279785;22;20023;-95
2021/01/16 07:36:53;;;;;;;1999.90;999.90;;;2.60;99.90;;;;;;6279943;22;20095;-94
2021/01/16 07:39:31;;;;;;;1999.90;999.90;;;2.60;99.90;;;;;;6279662;22;20028;-95
2021/01/16 07:42:16;;;;;;;1999.90;999.90;;;2.60;99.90;;;;;;6279302;22;20087;-95
2021/01/16 07:47:58;;;;;;;1999.90;999.90;;;2.60;99.90;;;;;;6279926;22;20040;-95
2021/01/16 07:50:31;;;;;;;1999.90;999.90;;;2.60;99.90;;;;;;6284737;22;20023;-96
2021/01/16 07:53:11;;;;;;;1999.90;999.90;;;2.50;99.90;;;;;;6284470;22;20012;-96
2021/01/16 07:56:05;;;;;;;1999.90;999.90;;;2.50;99.90;;;;;;6282170;22;20034;-96
2021/01/16 07:58:49;;;;;;;1999.90;999.90;;;2.50;99.90;;;;;;6283806;22;20042;-96
2021/01/16 08:01:31;;;;;;;1999.90;999.90;;;2.50;99.90;;;;;;6282999;22;20039;-96
2021/01/16 08:04:25;;;;;;;1999.90;999.90;;;2.50;99.90;;;;;;6281823;22;20042;-96
2021/01/16 08:07:11;;;;;;;1999.90;999.90;;;2.50;99.90;;;;;;6266229;22;20043;-96
2021/01/16 08:10:00;;;;;;;1999.90;999.90;;;2.50;99.90;;;;;;6283103;22;20075;-96
2021/01/16 08:12:58;;;;;;;1999.90;999.90;;;2.50;99.90;;;;;;6284509;22;20065;-96
2021/01/16 08:15:42;;;;;;;1999.90;999.90;;;2.50;99.90;;;;;;6289517;22;20079;-96
2021/01/16 08:18:22;;;;;;;1999.90;999.90;;;2.40;99.90;;;;;;6279278;22;20015;-94
2021/01/16 08:21:11;;;;;;;1999.90;999.90;;;2.50;99.90;;;;;;6278770;22;20020;-95
2021/01/16 08:23:49;;;;;;;1999.90;999.90;;;2.50;99.90;;;;;;6279426;22;20065;-95
2021/01/16 08:26:55;;;;;;;1999.90;999.90;;;2.50;99.90;;;;;;6279655;22;20327;-94
2021/01/16 08:29:33;;;;;;;1999.90;999.90;;;2.40;99.90;;;;;;6280338;22;20043;-94
2021/01/16 08:32:10;;;;;;;1999.90;999.90;;;2.40;99.90;;;;;;6279718;22;20022;-94
2021/01/16 08:35:03;;;;;;;1999.90;999.90;;;2.50;99.90;;;;;;6279145;22;20024;-95
2021/01/16 08:37:47;;;;;;;1999.90;999.90;;;2.50;99.90;;;;;;6279625;22;20150;-95
2021/01/16 08:40:30;;;;;;;1999.90;999.90;;;2.50;99.90;;;;;;6280256;22;20026;-95
2021/01/16 08:43:04;;;;;;;1999.90;999.90;;;2.50;99.90;;;;;;6279815;22;20016;-95
2021/01/16 08:45:34;;;;;;;1999.90;999.90;;;2.40;99.90;;;;;;6279325;22;20019;-94
2021/01/16 08:48:03;;;;;;;1999.90;999.90;;;2.40;99.90;;;;;;6279438;22;20019;-95
2021/01/16 08:50:34;;;;;;;1999.90;999.90;;;2.40;99.90;;;;;;6279062;22;20063;-95
2021/01/16 08:53:21;;;;;;;1999.90;999.90;;;2.40;99.90;;;;;;6280439;22;20018;-94
2021/01/16 08:55:58;;;;;;;1999.90;999.90;;;2.40;99.90;;;;;;6279659;22;20096;-94
2021/01/16 08:58:41;;;;;;;1999.90;999.90;;;2.40;99.90;;;;;;6279013;22;20019;-95
2021/01/16 09:01:12;;;;;;;1999.90;999.90;;;2.40;99.90;;;;;;6279444;22;20071;-95
2021/01/16 09:03:40;;;;;;;1999.90;999.90;;;2.40;99.90;;;;;;6279055;22;20015;-94
2021/01/16 09:10:10;;;;;;;1999.90;999.90;;;2.40;99.90;;;;;;6156357;23;20063;-93
2021/01/16 09:12:48;;;;;;;1999.90;999.90;;;2.50;99.90;;;;;;6156912;23;20080;-94
2021/01/16 09:15:22;;;;;;;1999.90;999.90;;;2.50;99.90;;;;;;6156147;23;20080;-94
2021/01/16 09:18:06;;;;;;;1999.90;999.90;;;2.50;99.90;;;;;;6156715;23;20022;-94
2021/01/16 09:20:40;;;;;;;1999.90;999.90;;;2.40;99.90;;;;;;6156708;23;20089;-96
2021/01/16 09:23:30;;;;;;;1999.90;999.90;;;2.50;99.90;;;;;;6173707;23;20017;-94
2021/01/16 09:26:10;;;;;;;1999.90;999.90;;;2.50;99.90;;;;;;6169438;23;20033;-95
2021/01/16 09:28:47;;;;;;;1999.90;999.90;;;2.50;99.90;;;;;;6156744;23;20044;-94
2021/01/16 09:31:39;;;;;;;1999.90;999.90;;;2.50;99.90;;;;;;6156450;23;20056;-94
2021/01/16 09:34:17;;;;;;;1999.90;999.90;;;2.50;99.90;;;;;;6155546;23;20028;-95
2021/01/16 09:37:00;;;;;;;1999.90;999.90;;;2.50;99.90;;;;;;6193643;22;20415;-94
2021/01/16 09:39:34;;;;;;;1999.90;999.90;;;2.50;99.90;;;;;;6278704;22;20039;-94
2021/01/16 09:42:04;;;;;;;1999.90;999.90;;;2.50;99.90;;;;;;6279204;22;20119;-96
2021/01/16 09:45:05;;;;;;;1999.90;999.90;;;2.50;99.90;;;;;;6279532;22;20069;-95
2021/01/16 09:47:43;;;;;;;1999.90;999.90;;;2.60;99.90;;;;;;6279606;22;20493;-94
2021/01/16 09:50:12;;;;;;;1999.90;999.90;;;2.60;99.90;;;;;;6279305;22;20023;-94
2021/01/16 09:52:49;;;;;;;1999.90;999.90;;;2.60;99.90;;;;;;6279232;22;20016;-94
2021/01/16 09:55:31;;;;;;;;;;;2.60;99.90;;;;;;6282578;22;20045;-96
2021/01/16 09:58:01;;;;;;;1999.90;999.90;;;2.60;99.90;;;;;;6286812;22;20324;-96
2021/01/16 10:00:40;;;;;;;1999.90;999.90;;;2.60;99.90;;;;;;6284796;22;20032;-96
2021/01/16 10:03:13;;;;;;;1999.90;999.90;;;2.70;99.90;;;;;;6281444;22;20012;-96
2021/01/16 10:05:50;;;;;;;1999.90;999.90;;;2.60;99.90;;;;;;6285936;22;20084;-96
2021/01/16 10:08:29;;;;;;;1999.90;999.90;;;2.60;99.90;;;;;;6292422;22;20022;-96
2021/01/16 10:10:58;;;;;;;1999.90;999.90;;;2.60;99.90;;;;;;6284416;22;20020;-96
2021/01/16 10:13:32;;;;;;;1999.90;999.90;;;2.60;99.90;;;;;;6281033;22;20012;-96
2021/01/16 10:16:04;;;;;;;1999.90;999.90;;;2.70;99.90;;;;;;6281893;22;20022;-96
2021/01/16 10:18:36;;;;;;;1999.90;999.90;;;2.60;99.90;;;;;;6279400;22;20020;-96
2021/01/16 10:21:13;;;;;;;1999.90;999.90;;;2.60;99.90;;;;;;6286603;22;20027;-96
2021/01/16 10:23:46;;;;;;;1999.90;999.90;;;2.60;99.90;;;;;;6279936;22;20034;-96
2021/01/16 10:26:20;;;;;;;1999.90;999.90;;;2.60;99.90;;;;;;6278793;22;20016;-96
2021/01/16 10:29:17;;;;;;;1999.90;999.90;;;2.70;99.90;;;;;;6280101;22;20020;-96
2021/01/16 10:31:44;;;;;;;1999.90;999.90;;;2.60;99.90;;;;;;6277774;22;20024;-96
2021/01/16 10:34:12;;;;;;;1999.90;999.90;;;2.70;99.90;;;;;;6282316;22;20020;-96
2021/01/16 10:36:48;;;;;;;1999.90;999.90;;;2.70;99.90;;;;;;6286338;22;20027;-96
2021/01/16 10:39:24;;;;;;;1999.90;999.90;;;2.80;99.90;;;;;;6286806;22;20019;-96
2021/01/16 10:41:53;;;;;;;1999.90;999.90;;;2.80;99.90;;;;;;6287827;22;20380;-96
2021/01/16 10:44:25;;;;;;;1999.90;999.90;;;2.80;99.90;;;;;;6283223;22;20325;-96
2021/01/16 10:47:23;;;;;;;1999.90;999.90;;;2.80;99.90;;;;;;6284507;22;20095;-96
2021/01/16 10:49:51;;;;;;;1999.90;999.90;;;2.80;99.90;;;;;;6283651;22;20016;-96
2021/01/16 10:52:38;;;;;;;1999.90;999.90;;;2.90;99.90;;;;;;6285026;22;20015;-96
2021/01/16 10:55:13;;;;;;;1999.90;999.90;;;2.90;99.90;;;;;;6296918;22;20020;-96
2021/01/16 10:57:50;;;;;;;1999.90;999.90;;;2.90;99.90;;;;;;6285679;22;20069;-96
2021/01/16 11:00:41;;;;;;;1999.90;999.90;;;2.90;99.90;;;;;;6284085;22;20098;-94
2021/01/16 11:03:17;;;;;;;1999.90;999.90;;;2.80;99.90;;;;;;6279833;22;20011;-95
2021/01/16 11:05:57;;;;;;;1999.90;999.90;;;2.80;99.90;;;;;;6280250;22;20022;-95
2021/01/16 11:08:29;;;;;;;1999.90;999.90;;;2.80;99.90;;;;;;6280272;22;20046;-95
2021/01/16 11:10:58;;;;;;;1999.90;999.90;;;2.80;99.90;;;;;;6280222;22;20024;-95
2021/01/16 11:13:28;;;;;;;1999.90;999.90;;;2.80;99.90;;;;;;6280677;22;20022;-94
2021/01/16 11:16:12;;;;;;;1999.90;999.90;;;2.80;99.90;;;;;;6280313;22;20016;-95
2021/01/16 11:18:48;;;;;;;1999.90;999.90;;;2.90;99.90;;;;;;6280902;22;20037;-95
2021/01/16 11:21:49;;;;;;;1999.90;999.90;;;2.90;99.90;;;;;;6280892;22;20028;-95
2021/01/16 11:25:01;;;;;;;1999.90;999.90;;;2.90;99.90;;;;;;6280828;22;20122;-96
2021/01/16 11:27:41;;;;;;;1999.90;999.90;;;2.90;99.90;;;;;;6251223;22;20016;-94
2021/01/16 11:30:28;;;;;;;1999.90;999.90;;;2.90;99.90;;;;;;6280375;22;20035;-95
2021/01/16 11:33:14;;;;;;;1999.90;999.90;;;2.90;99.90;;;;;;6279877;22;20024;-95
2021/01/16 11:35:54;;;;;;;1999.90;999.90;;;2.90;99.90;;;;;;6280719;22;20043;-95
2021/01/16 11:38:58;;;;;;;;;;;;;;;;;;;;;
2021/01/16 11:42:05;;;;;;;1999.90;999.90;;;2.90;99.90;;;;;;6280695;22;20020;-95
2021/01/16 11:48:06;;;;;;;1999.90;999.90;;;2.90;99.90;;;;;;6253406;22;20019;-95
2021/01/16 11:50:44;;;;;;;1999.90;999.90;;;2.90;99.90;;;;;;6280647;22;20019;-95
2021/01/16 11:56:28;;;;;;;1999.90;999.90;;;2.90;99.90;;;;;;6276102;22;20028;-94
2021/01/16 11:58:58;;;;;;;1999.90;999.90;;;3.00;99.90;;;;;;6280015;22;20457;-96
2021/01/16 12:01:39;;;;;;;1999.90;999.90;;;3.00;99.90;;;;;;6279596;22;20022;-94
2021/01/16 12:04:14;;;;;;;1999.90;999.90;;;3.00;99.90;;;;;;6280484;22;20040;-96
2021/01/16 12:07:03;;;;;;;1999.90;999.90;;;2.90;99.90;;;;;;6280338;22;20019;-95
2021/01/16 12:09:41;;;;;;;1999.90;999.90;;;2.90;99.90;;;;;;6279577;22;20024;-95
2021/01/16 12:12:20;;;;;;;1999.90;999.90;;;2.90;99.90;;;;;;6279199;22;20091;-96
2021/01/16 12:15:04;;;;;;;1999.90;999.90;;;2.90;99.90;;;;;;6279493;22;20466;-95
2021/01/16 12:17:37;;;;;;;1999.90;999.90;;;3.00;99.90;;;;;;6280255;22;20015;-96
2021/01/16 12:20:13;;;;;;;1999.90;999.90;;;2.90;99.90;;;;;;6280098;22;20026;-95
2021/01/16 12:22:43;;;;;;;1999.90;999.90;;;3.00;99.90;;;;;;6279829;22;20015;-94
2021/01/16 12:25:12;;;;;;;1999.90;999.90;;;3.10;99.90;;;;;;6280189;22;20422;-94
2021/01/16 12:27:53;;;;;;;1999.90;999.90;;;3.00;99.90;;;;;;6279350;22;20020;-94
2021/01/16 12:30:22;;;;;;;1999.90;999.90;;;3.00;99.90;;;;;;6279091;22;20094;-95
2021/01/16 12:32:56;;;;;;;1999.90;999.90;;;3.00;99.90;;;;;;6280383;22;20012;-95
2021/01/16 12:35:28;;;;;;;1999.90;999.90;;;3.00;99.90;;;;;;6279352;22;20019;-95
2021/01/16 12:37:58;;;;;;;1999.90;999.90;;;3.00;99.90;;;;;;6279555;22;20030;-95
2021/01/16 12:40:28;;;;;;;1999.90;999.90;;;2.90;99.90;;;;;;6280000;22;20019;-94
2021/01/16 12:42:58;;;;;;;1999.90;999.90;;;2.90;99.90;;;;;;6278833;22;20016;-94
2021/01/16 12:45:27;;;;;;;1999.90;999.90;;;2.80;99.90;;;;;;6279588;22;20046;-94
2021/01/16 12:47:59;;;;;;;1999.90;999.90;;;2.90;99.90;;;;;;6279661;22;20428;-96
2021/01/16 12:50:26;;;;;;;1999.90;999.90;;;2.90;99.90;;;;;;6280187;22;20039;-95
2021/01/16 12:52:55;;;;;;;1999.90;999.90;;;2.90;99.90;;;;;;6279197;22;20050;-95
2021/01/16 12:55:29;;;;;;;1999.90;999.90;;;2.80;99.90;;;;;;6278483;22;20020;-95
2021/01/16 12:58:00;;;;;;;1999.90;999.90;;;2.90;99.90;;;;;;6279279;22;20538;-95
2021/01/16 13:00:30;;;;;;;1999.90;999.90;;;2.90;99.90;;;;;;6279138;22;20026;-94
2021/01/16 13:07:02;;;;;;;1999.90;999.90;;;2.90;99.90;;;;;;6008215;23;20356;-93
2021/01/16 13:13:01;;;;;;;1999.90;999.90;;;2.90;99.90;;;;;;6280589;22;20020;-94
2021/01/16 13:15:37;;;;;;;1999.90;999.90;;;2.90;99.90;;;;;;6133063;23;20105;-95
2021/01/16 13:22:17;;;;;;;1999.90;999.90;;;2.80;99.90;;;;;;6133514;23;20024;-95
2021/01/16 13:25:14;;;;;;;1999.90;999.90;;;2.80;99.90;;;;;;6128141;23;20026;-93
2021/01/16 13:27:50;;;;;;;1999.90;999.90;;;2.70;99.90;;;;;;6152002;22;20473;-95
2021/01/16 13:30:20;;;;;;;1999.90;999.90;;;2.70;99.90;;;;;;6278521;22;20020;-94